createdAt,value
2023-04-13T00:02:27.719Z,12.38
2023-04-13T00:06:21.778Z,12.00
2023-04-13T00:10:29.922Z,11.64
2023-04-13T00:14:37.328Z,11.60
2023-04-13T00:18:34.634Z,12.71
2023-04-13T00:22:35.669Z,12.60
2023-04-13T00:26:45.360Z,12.15
2023-04-13T00:30:25.571Z,11.81
2023-04-13T00:33:52.873Z,11.54
2023-04-13T00:38:07.891Z,11.46
2023-04-13T00:42:14.770Z,12.62
2023-04-13T00:46:22.105Z,12.54
2023-04-13T00:50:29.626Z,12.14
2023-04-13T00:54:09.656Z,11.75
2023-04-13T00:58:12.014Z,11.44
2023-04-13T01:02:20.358Z,11.45
2023-04-13T01:06:29.061Z,12.62
2023-04-13T01:10:44.061Z,12.60
2023-04-13T01:14:48.801Z,12.21
2023-04-13T01:18:38.468Z,11.80
2023-04-13T01:22:45.867Z,11.47
2023-04-13T01:26:56.429Z,11.43
2023-04-13T01:31:02.838Z,12.60
2023-04-13T01:35:10.329Z,12.45
2023-04-13T01:39:17.856Z,11.95
2023-04-13T01:43:26.307Z,11.46
2023-04-13T01:47:31.622Z,11.03
2023-04-13T01:51:33.012Z,10.90
2023-04-13T01:55:35.249Z,12.14
2023-04-13T01:59:02.819Z,12.12
2023-04-13T02:03:10.365Z,11.74
2023-04-13T02:07:17.922Z,11.32
2023-04-13T02:11:25.360Z,10.93
2023-04-13T02:15:33.909Z,10.90
2023-04-13T02:19:43.490Z,12.18
2023-04-13T02:23:50.901Z,12.11
2023-04-13T02:27:39.282Z,11.64
2023-04-13T02:31:49.032Z,11.23
2023-04-13T02:35:57.233Z,10.92
2023-04-13T02:40:06.705Z,11.00
2023-04-13T02:43:57.254Z,12.27
2023-04-13T02:47:57.451Z,12.19
2023-04-13T02:51:57.552Z,11.79
2023-04-13T02:55:57.864Z,11.38
2023-04-13T02:59:36.093Z,10.97
2023-04-13T03:03:43.560Z,10.65
2023-04-13T03:07:51.081Z,10.72
2023-04-13T03:11:59.560Z,11.88
2023-04-13T03:16:12.923Z,11.79
2023-04-13T03:20:20.393Z,11.27
2023-04-13T03:24:31.651Z,10.86
2023-04-13T03:28:29.502Z,10.51
2023-04-13T03:32:36.950Z,10.50
2023-04-13T03:36:45.631Z,11.70
2023-04-13T03:40:53.078Z,11.70
2023-04-13T03:44:38.510Z,11.26
2023-04-13T03:48:27.792Z,10.89
2023-04-13T03:52:24.354Z,10.57
2023-04-13T03:56:25.894Z,10.50
2023-04-13T04:00:33.400Z,11.81
2023-04-13T04:03:38.748Z,11.83
2023-04-13T04:07:23.101Z,11.55
2023-04-13T04:10:47.604Z,11.20
2023-04-13T04:14:04.048Z,10.88
2023-04-13T04:17:41.198Z,10.52
2023-04-13T04:21:04.591Z,10.36
2023-04-13T04:24:54.231Z,11.54
2023-04-13T04:29:00.242Z,11.84
2023-04-13T04:32:22.479Z,11.36
2023-04-13T04:36:21.207Z,10.93
2023-04-13T04:40:24.374Z,10.58
2023-04-13T04:43:36.989Z,10.53
2023-04-13T04:47:16.028Z,11.50
2023-04-13T04:50:57.277Z,11.61
2023-04-13T04:54:40.550Z,11.37
2023-04-13T04:58:29.992Z,11.01
2023-04-13T05:02:01.350Z,10.70
2023-04-13T05:04:41.189Z,10.56
2023-04-13T05:07:17.195Z,11.42
2023-04-13T05:09:55.563Z,12.07
2023-04-13T05:12:22.297Z,12.12
2023-04-13T05:15:11.655Z,12.00
2023-04-13T05:17:41.096Z,11.76
2023-04-13T05:20:28.006Z,11.54
2023-04-13T05:23:48.078Z,11.26
2023-04-13T05:26:24.806Z,11.19
2023-04-13T05:28:54.799Z,12.14
2023-04-13T05:31:53.308Z,12.91
2023-04-13T05:34:20.495Z,12.96
2023-04-13T05:37:22.486Z,12.80
2023-04-13T05:40:14.633Z,12.50
2023-04-13T05:43:05.833Z,12.34
2023-04-13T05:45:39.358Z,12.23
2023-04-13T05:48:11.802Z,12.15
2023-04-13T05:51:32.306Z,12.12
2023-04-13T05:54:02.152Z,13.18
2023-04-13T05:56:33.707Z,13.89
2023-04-13T05:59:03.876Z,13.94
2023-04-13T06:01:34.495Z,13.86
2023-04-13T06:04:23.044Z,13.69
2023-04-13T06:07:09.149Z,13.56
2023-04-13T06:09:45.420Z,13.49
2023-04-13T06:12:24.167Z,13.57
2023-04-13T06:14:52.847Z,13.82
2023-04-13T06:17:19.974Z,14.08
2023-04-13T06:19:48.979Z,14.44
2023-04-13T06:22:35.724Z,16.09
2023-04-13T06:25:02.716Z,17.53
2023-04-13T06:28:07.502Z,18.46
2023-04-13T06:30:37.995Z,19.00
2023-04-13T06:33:08.132Z,19.41
2023-04-13T06:35:52.840Z,19.63
2023-04-13T06:38:46.844Z,19.69
2023-04-13T06:41:29.529Z,19.29
2023-04-13T06:44:26.939Z,19.08
2023-04-13T06:47:42.689Z,19.14
2023-04-13T06:50:17.841Z,18.97
2023-04-13T06:52:53.250Z,19.17
2023-04-13T06:56:01.963Z,19.24
2023-04-13T06:58:45.426Z,19.12
2023-04-13T07:01:18.039Z,19.34
2023-04-13T07:04:01.696Z,19.38
2023-04-13T07:06:28.998Z,19.58
2023-04-13T07:08:55.692Z,19.97
2023-04-13T07:11:28.707Z,20.45
2023-04-13T07:13:55.408Z,20.98
2023-04-13T07:16:24.233Z,21.21
2023-04-13T07:18:51.822Z,20.95
2023-04-13T07:21:22.379Z,20.58
2023-04-13T07:24:12.366Z,20.59
2023-04-13T07:26:57.817Z,20.98
2023-04-13T07:29:25.190Z,21.15
2023-04-13T07:32:00.473Z,20.82
2023-04-13T07:35:03.061Z,20.38
2023-04-13T07:38:02.271Z,20.10
2023-04-13T07:40:39.267Z,20.52
2023-04-13T07:43:29.204Z,20.90
2023-04-13T07:45:59.197Z,20.79
2023-04-13T07:48:26.627Z,20.65
2023-04-13T07:51:08.022Z,20.49
2023-04-13T07:53:46.531Z,20.38
2023-04-13T07:56:38.851Z,20.64
2023-04-13T07:59:28.729Z,20.67
2023-04-13T08:02:07.543Z,20.86
2023-04-13T08:04:48.473Z,20.71
2023-04-13T08:07:31.971Z,20.34
2023-04-13T08:10:04.544Z,19.94
2023-04-13T08:12:46.097Z,19.60
2023-04-13T08:15:32.528Z,19.71
2023-04-13T08:18:04.087Z,19.95
2023-04-13T08:20:34.893Z,20.23
2023-04-13T08:23:19.741Z,20.37
2023-04-13T08:25:47.048Z,20.68
2023-04-13T08:28:14.887Z,20.74
2023-04-13T08:30:51.220Z,21.34
2023-04-13T08:33:19.466Z,21.98
2023-04-13T08:35:57.743Z,22.19
2023-04-13T08:38:48.548Z,22.41
2023-04-13T08:41:31.105Z,22.94
2023-04-13T08:44:07.955Z,23.53
2023-04-13T08:47:07.332Z,23.99
2023-04-13T08:50:01.315Z,23.50
2023-04-13T08:52:55.470Z,22.89
2023-04-13T08:55:25.839Z,22.70
2023-04-13T08:57:57.777Z,23.20
2023-04-13T09:00:31.883Z,23.93
2023-04-13T09:03:07.524Z,24.35
2023-04-13T09:05:45.529Z,24.73
2023-04-13T09:08:46.263Z,25.22
2023-04-13T09:11:26.727Z,25.87
2023-04-13T09:14:21.911Z,26.04
2023-04-13T09:17:21.445Z,25.78
2023-04-13T09:19:52.801Z,25.86
2023-04-13T09:22:20.980Z,26.19
2023-04-13T09:24:56.567Z,26.30
2023-04-13T09:27:43.141Z,25.57
2023-04-13T09:30:19.022Z,24.85
2023-04-13T09:32:47.874Z,24.62
2023-04-13T09:35:14.597Z,24.67
2023-04-13T09:38:05.602Z,24.63
2023-04-13T09:40:38.502Z,24.70
2023-04-13T09:43:07.178Z,24.52
2023-04-13T09:45:48.329Z,24.07
2023-04-13T09:48:21.136Z,23.86
2023-04-13T09:51:01.550Z,24.16
2023-04-13T09:53:46.653Z,23.94
2023-04-13T09:56:25.586Z,23.13
2023-04-13T09:59:05.998Z,23.18
2023-04-13T10:01:36.669Z,23.65
2023-04-13T10:04:30.287Z,24.03
2023-04-13T10:07:02.579Z,24.63
2023-04-13T10:09:51.077Z,25.00
2023-04-13T10:12:23.477Z,25.50
2023-04-13T10:14:51.217Z,25.91
2023-04-13T10:17:51.105Z,26.08
2023-04-13T10:20:18.406Z,25.77
2023-04-13T10:23:01.523Z,25.42
2023-04-13T10:25:33.459Z,25.16
2023-04-13T10:28:28.284Z,25.21
2023-04-13T10:31:05.040Z,25.70
2023-04-13T10:34:09.077Z,26.14
2023-04-13T10:36:46.356Z,26.66
2023-04-13T10:39:25.142Z,27.04
2023-04-13T10:42:18.037Z,27.19
2023-04-13T10:44:54.013Z,27.38
2023-04-13T10:47:25.864Z,27.78
2023-04-13T10:50:00.183Z,28.13
2023-04-13T10:52:27.644Z,28.26
2023-04-13T10:55:25.032Z,28.41
2023-04-13T10:58:01.121Z,28.71
2023-04-13T11:01:12.912Z,28.91
2023-04-13T11:04:05.251Z,29.20
2023-04-13T11:06:38.768Z,29.30
2023-04-13T11:09:06.133Z,29.09
2023-04-13T11:11:35.744Z,28.13
2023-04-13T11:14:04.691Z,27.56
2023-04-13T11:16:44.966Z,27.01
2023-04-13T11:19:12.672Z,26.15
2023-04-13T11:21:57.263Z,25.57
2023-04-13T11:24:26.458Z,24.95
2023-04-13T11:27:07.429Z,24.47
2023-04-13T11:29:36.871Z,24.51
2023-04-13T11:32:27.171Z,24.51
2023-04-13T11:35:06.368Z,24.78
2023-04-13T11:37:41.140Z,24.87
2023-04-13T11:40:10.000Z,24.54
2023-04-13T11:42:45.299Z,24.17
2023-04-13T11:45:15.896Z,23.97
2023-04-13T11:48:08.854Z,24.18
2023-04-13T11:50:46.366Z,24.42
2023-04-13T11:53:20.542Z,24.79
2023-04-13T11:56:06.002Z,24.68
2023-04-13T11:58:35.353Z,24.34
2023-04-13T12:01:14.368Z,23.65
2023-04-13T12:03:59.223Z,22.97
2023-04-13T12:06:34.300Z,22.55
2023-04-13T12:09:13.601Z,22.16
2023-04-13T12:11:52.108Z,21.77
2023-04-13T12:14:53.492Z,21.39
2023-04-13T12:17:57.654Z,21.12
2023-04-13T12:20:39.865Z,20.79
2023-04-13T12:23:24.303Z,20.59
2023-04-13T12:25:58.159Z,20.57
2023-04-13T12:28:34.988Z,20.42
2023-04-13T12:31:22.759Z,20.29
2023-04-13T12:33:50.953Z,20.15
2023-04-13T12:36:20.312Z,20.06
2023-04-13T12:38:59.698Z,20.17
2023-04-13T12:41:26.884Z,20.41
2023-04-13T12:44:19.211Z,20.53
2023-04-13T12:46:46.773Z,20.56
2023-04-13T12:49:16.045Z,20.63
2023-04-13T12:51:49.363Z,20.62
2023-04-13T12:54:21.757Z,20.63
2023-04-13T12:56:53.778Z,20.56
2023-04-13T12:59:22.530Z,20.46
2023-04-13T13:01:49.981Z,20.37
2023-04-13T13:04:22.860Z,20.34
2023-04-13T13:07:12.961Z,20.58
2023-04-13T13:09:41.872Z,21.12
2023-04-13T13:12:30.367Z,21.74
2023-04-13T13:15:03.807Z,22.12
2023-04-13T13:17:33.304Z,22.42
2023-04-13T13:20:03.417Z,22.79
2023-04-13T13:22:35.064Z,23.06
2023-04-13T13:25:17.769Z,23.08
2023-04-13T13:30:14.800Z,22.84
2023-04-13T13:32:49.899Z,22.72
2023-04-13T13:35:19.407Z,22.68
2023-04-13T13:38:00.327Z,22.38
2023-04-13T13:40:33.136Z,22.08
2023-04-13T13:43:49.266Z,21.85
2023-04-13T13:46:50.688Z,21.48
2023-04-13T13:49:28.417Z,21.17
2023-04-13T13:52:27.696Z,20.95
2023-04-13T13:55:18.887Z,20.89
2023-04-13T13:57:55.032Z,20.86
2023-04-13T14:00:25.201Z,20.84
2023-04-13T14:02:52.040Z,20.85
2023-04-13T14:05:22.009Z,20.95
2023-04-13T14:07:54.612Z,20.97
2023-04-13T14:10:21.950Z,21.06
2023-04-13T14:13:10.980Z,21.02
2023-04-13T14:15:42.264Z,20.93
2023-04-13T14:18:36.100Z,20.86
2023-04-13T14:21:03.863Z,20.94
2023-04-13T14:23:39.717Z,20.94
2023-04-13T14:26:06.633Z,20.88
2023-04-13T14:28:33.540Z,20.75
2023-04-13T14:31:26.419Z,20.54
2023-04-13T14:34:13.270Z,20.26
2023-04-13T14:36:51.602Z,20.11
2023-04-13T14:39:20.422Z,20.04
2023-04-13T14:41:57.998Z,20.04
2023-04-13T14:44:44.734Z,20.06
2023-04-13T14:47:15.304Z,20.11
2023-04-13T14:49:45.728Z,20.16
2023-04-13T14:52:13.705Z,20.14
2023-04-13T14:54:56.115Z,20.18
2023-04-13T14:57:47.442Z,20.09
2023-04-13T15:00:35.835Z,20.11
2023-04-13T15:03:23.645Z,20.14
2023-04-13T15:05:56.836Z,20.18
2023-04-13T15:08:31.954Z,20.18
2023-04-13T15:10:58.646Z,20.15
2023-04-13T15:13:28.202Z,20.16
2023-04-13T15:15:55.106Z,20.15
2023-04-13T15:18:21.499Z,20.17
2023-04-13T15:21:05.643Z,20.17
2023-04-13T15:23:37.095Z,20.18
2023-04-13T15:26:04.533Z,20.19
2023-04-13T15:28:32.431Z,20.17
2023-04-13T15:31:10.628Z,20.19
2023-04-13T15:33:39.999Z,20.16
2023-04-13T15:36:12.434Z,20.11
2023-04-13T15:38:47.417Z,19.98
2023-04-13T15:41:27.332Z,19.86
2023-04-13T15:44:17.885Z,19.75
2023-04-13T15:46:45.039Z,19.67
2023-04-13T15:49:13.100Z,19.59
2023-04-13T15:51:39.882Z,19.53
2023-04-13T15:54:06.365Z,19.50
2023-04-13T15:56:33.287Z,19.47
2023-04-13T15:59:03.059Z,19.39
2023-04-13T16:01:43.574Z,19.25
2023-04-13T16:04:14.380Z,19.11
2023-04-13T16:06:44.101Z,19.03
2023-04-13T16:09:17.045Z,18.94
2023-04-13T16:12:10.174Z,18.86
2023-04-13T16:14:46.081Z,18.77
2023-04-13T16:17:18.138Z,18.67
2023-04-13T16:19:49.990Z,18.60
2023-04-13T16:22:17.360Z,18.55
2023-04-13T16:24:48.877Z,18.50
2023-04-13T16:27:42.169Z,18.44
2023-04-13T16:30:20.079Z,18.39
2023-04-13T16:32:47.642Z,18.31
2023-04-13T16:35:17.271Z,18.24
2023-04-13T16:37:44.476Z,18.17
2023-04-13T16:40:26.810Z,18.07
2023-04-13T16:42:53.323Z,17.99
2023-04-13T16:45:21.101Z,17.89
2023-04-13T16:48:11.485Z,17.76
2023-04-13T16:50:43.930Z,17.61
2023-04-13T16:53:20.908Z,17.45
2023-04-13T16:55:53.327Z,17.27
2023-04-13T16:58:20.206Z,17.13
2023-04-13T17:00:50.451Z,16.99
2023-04-13T17:03:17.694Z,16.85
2023-04-13T17:05:44.360Z,16.75
2023-04-13T17:10:25.794Z,16.40
2023-04-13T17:12:53.347Z,16.43
2023-04-13T17:15:26.621Z,16.31
2023-04-13T17:17:55.056Z,16.17
2023-04-13T17:20:31.977Z,16.04
2023-04-13T17:23:19.515Z,15.86
2023-04-13T17:26:10.563Z,15.71
2023-04-13T17:28:40.556Z,15.56
2023-04-13T17:31:10.799Z,15.39
2023-04-13T17:33:44.981Z,15.18
2023-04-13T17:36:15.448Z,15.02
2023-04-13T17:38:42.619Z,14.90
2023-04-13T17:41:18.061Z,14.78
2023-04-13T17:43:45.879Z,14.67
2023-04-13T17:46:15.883Z,14.54
2023-04-13T17:48:53.337Z,14.41
2023-04-13T17:51:21.551Z,14.30
2023-04-13T17:54:18.501Z,14.19
2023-04-13T17:56:48.449Z,14.09
2023-04-13T17:59:16.482Z,14.02
2023-04-13T18:01:44.106Z,13.97
2023-04-13T18:04:13.395Z,13.93
2023-04-13T18:06:44.243Z,13.90
2023-04-13T18:09:14.444Z,13.87
2023-04-13T18:11:42.304Z,13.85
2023-04-13T18:14:12.295Z,13.82
2023-04-13T18:16:45.558Z,13.82
2023-04-13T18:19:29.415Z,13.81
2023-04-13T18:21:59.065Z,13.80
2023-04-13T18:24:26.594Z,13.78
2023-04-13T18:26:54.008Z,13.73
2023-04-13T18:29:32.785Z,13.69
2023-04-13T18:32:04.467Z,13.66
2023-04-13T18:34:44.147Z,13.64
2023-04-13T18:37:14.914Z,13.63
2023-04-13T18:39:42.482Z,13.65
2023-04-13T18:42:10.159Z,13.65
2023-04-13T18:44:37.830Z,13.60
2023-04-13T18:47:05.415Z,13.53
2023-04-13T18:49:41.750Z,13.46
2023-04-13T18:52:28.690Z,13.40
2023-04-13T18:54:56.383Z,13.38
2023-04-13T18:57:24.288Z,13.37
2023-04-13T18:59:51.678Z,13.33
2023-04-13T19:02:26.577Z,13.34
2023-04-13T19:04:54.210Z,13.37
2023-04-13T19:07:21.550Z,13.32
2023-04-13T19:09:49.755Z,13.25
2023-04-13T19:12:17.566Z,13.23
2023-04-13T19:14:49.199Z,13.24
2023-04-13T19:17:30.942Z,13.23
2023-04-13T19:20:10.189Z,13.25
2023-04-13T19:22:40.488Z,13.21
2023-04-13T19:25:14.415Z,13.18
2023-04-13T19:27:51.638Z,13.16
2023-04-13T19:30:21.581Z,13.13
2023-04-13T19:33:00.949Z,13.09
2023-04-13T19:35:38.155Z,13.05
2023-04-13T19:38:13.728Z,13.01
2023-04-13T19:40:43.641Z,12.99
2023-04-13T19:43:14.782Z,12.97
2023-04-13T19:45:42.692Z,12.92
2023-04-13T19:48:19.940Z,12.82
2023-04-13T19:50:58.559Z,13.40
2023-04-13T19:53:37.452Z,14.08
2023-04-13T19:56:06.668Z,14.14
2023-04-13T19:58:36.460Z,13.97
2023-04-13T20:01:06.325Z,13.76
2023-04-13T20:03:40.363Z,13.52
2023-04-13T20:06:08.897Z,13.29
2023-04-13T20:08:42.163Z,13.08
2023-04-13T20:11:20.164Z,12.84
2023-04-13T20:13:53.253Z,12.63
2023-04-13T20:16:26.587Z,12.47
2023-04-13T20:18:54.029Z,12.33
2023-04-13T20:21:26.630Z,12.21
2023-04-13T20:23:54.090Z,12.10
2023-04-13T20:26:54.152Z,11.98
2023-04-13T20:29:29.312Z,12.75
2023-04-13T20:32:03.526Z,13.35
2023-04-13T20:34:35.126Z,13.39
2023-04-13T20:37:22.413Z,13.25
2023-04-13T20:40:27.006Z,13.06
2023-04-13T20:43:20.715Z,12.82
2023-04-13T20:45:59.920Z,12.65
2023-04-13T20:51:32.802Z,12.34
2023-04-13T20:54:44.328Z,12.26
2023-04-13T20:57:20.198Z,12.22
2023-04-13T21:00:14.491Z,13.04
2023-04-13T21:02:50.165Z,13.80
2023-04-13T21:05:38.352Z,13.83
2023-04-13T21:09:02.360Z,13.55
2023-04-13T21:11:33.114Z,13.24
2023-04-13T21:14:56.527Z,12.99
2023-04-13T21:18:36.823Z,12.70
2023-04-13T21:21:30.618Z,12.39
2023-04-13T21:24:24.355Z,12.16
2023-04-13T21:27:22.508Z,11.99
2023-04-13T21:30:31.952Z,11.77
2023-04-13T21:33:44.026Z,12.70
2023-04-13T21:39:34.469Z,13.12
2023-04-13T21:42:17.389Z,12.83
2023-04-13T21:45:03.995Z,12.52
2023-04-13T21:47:47.354Z,12.24
2023-04-13T21:50:34.188Z,11.98
2023-04-13T21:53:32.760Z,11.75
2023-04-13T21:56:42.915Z,11.49
2023-04-13T21:59:43.575Z,12.22
2023-04-13T22:02:34.757Z,12.62
2023-04-13T22:05:55.943Z,12.42
2023-04-13T22:09:06.636Z,12.02
2023-04-13T22:12:34.979Z,11.65
2023-04-13T22:15:49.723Z,11.26
2023-04-13T22:18:20.927Z,10.98
2023-04-13T22:20:53.968Z,10.71
2023-04-13T22:23:55.608Z,11.26
2023-04-13T22:26:47.140Z,11.86
2023-04-13T22:29:51.697Z,11.77
2023-04-13T22:33:22.030Z,11.48
2023-04-13T22:36:24.959Z,11.14
2023-04-13T22:39:38.570Z,10.83
2023-04-13T22:42:52.184Z,10.54
2023-04-13T22:46:08.004Z,10.32
2023-04-13T22:49:51.720Z,11.37
2023-04-13T22:53:35.184Z,11.78
2023-04-13T22:56:33.161Z,11.44
2023-04-13T22:59:51.377Z,11.04
2023-04-13T23:02:52.956Z,10.64
2023-04-13T23:05:51.497Z,10.32
2023-04-13T23:09:39.689Z,10.08
2023-04-13T23:12:53.645Z,11.08
2023-04-13T23:16:23.775Z,11.46
2023-04-13T23:19:14.339Z,11.13
2023-04-13T23:22:43.236Z,10.70
2023-04-13T23:26:23.473Z,10.22
2023-04-13T23:29:34.152Z,9.86
2023-04-13T23:33:35.358Z,9.63
2023-04-13T23:37:30.894Z,10.82
2023-04-13T23:41:10.755Z,10.94
2023-04-13T23:45:06.175Z,10.53
2023-04-13T23:48:33.757Z,10.01
2023-04-13T23:52:02.425Z,9.66
2023-04-13T23:55:27.733Z,9.34
2023-04-13T23:59:15.205Z,9.15
